sensor_id;sensor_type;location;lat;lon;timestamp;P1;durP1;ratioP1;P2;durP2;ratioP2
49252;SDS011;35103;47.952;-1.502;2022-10-31T00:01:29;600.92;;;556.50;;
49252;SDS011;35103;47.952;-1.502;2022-10-31T00:03:57;517.50;;;479.08;;
49252;SDS011;35103;47.952;-1.502;2022-10-31T00:06:23;411.70;;;384.02;;
49252;SDS011;35103;47.952;-1.502;2022-10-31T00:08:59;573.83;;;530.90;;
49252;SDS011;35103;47.952;-1.502;2022-10-31T00:11:27;643.17;;;594.63;;
49252;SDS011;35103;47.952;-1.502;2022-10-31T00:13:52;401.20;;;374.20;;
49252;SDS011;35103;47.952;-1.502;2022-10-31T00:16:22;422.17;;;392.27;;
49252;SDS011;35103;47.952;-1.502;2022-10-31T00:18:49;633.03;;;578.50;;
49252;SDS011;35103;47.952;-1.502;2022-10-31T00:21:16;547.58;;;507.08;;
49252;SDS011;35103;47.952;-1.502;2022-10-31T00:23:42;537.15;;;495.73;;
49252;SDS011;35103;47.952;-1.502;2022-10-31T00:26:08;603.08;;;555.65;;
49252;SDS011;35103;47.952;-1.502;2022-10-31T00:28:33;455.10;;;423.25;;
49252;SDS011;35103;47.952;-1.502;2022-10-31T00:30:59;504.23;;;466.83;;
49252;SDS011;35103;47.952;-1.502;2022-10-31T00:33:29;489.80;;;453.50;;
49252;SDS011;35103;47.952;-1.502;2022-10-31T00:35:55;497.35;;;461.15;;
49252;SDS011;35103;47.952;-1.502;2022-10-31T00:38:21;451.33;;;418.30;;
49252;SDS011;35103;47.952;-1.502;2022-10-31T00:40:46;450.83;;;418.52;;
49252;SDS011;35103;47.952;-1.502;2022-10-31T00:43:12;609.17;;;562.15;;
49252;SDS011;35103;47.952;-1.502;2022-10-31T00:45:37;500.38;;;462.77;;
49252;SDS011;35103;47.952;-1.502;2022-10-31T00:48:03;495.75;;;458.25;;
49252;SDS011;35103;47.952;-1.502;2022-10-31T00:50:29;416.15;;;387.67;;
49252;SDS011;35103;47.952;-1.502;2022-10-31T00:52:55;495.00;;;459.50;;
49252;SDS011;35103;47.952;-1.502;2022-10-31T00:55:20;654.53;;;597.97;;
49252;SDS011;35103;47.952;-1.502;2022-10-31T00:57:46;614.97;;;566.00;;
49252;SDS011;35103;47.952;-1.502;2022-10-31T01:00:12;552.53;;;511.02;;
49252;SDS011;35103;47.952;-1.502;2022-10-31T01:02:38;538.58;;;497.40;;
49252;SDS011;35103;47.952;-1.502;2022-10-31T01:05:03;523.10;;;483.95;;
49252;SDS011;35103;47.952;-1.502;2022-10-31T01:07:29;464.23;;;431.58;;
49252;SDS011;35103;47.952;-1.502;2022-10-31T01:09:54;480.33;;;444.52;;
49252;SDS011;35103;47.952;-1.502;2022-10-31T01:12:20;457.02;;;424.75;;
49252;SDS011;35103;47.952;-1.502;2022-10-31T01:14:46;481.92;;;447.00;;
49252;SDS011;35103;47.952;-1.502;2022-10-31T01:17:12;621.97;;;570.55;;
49252;SDS011;35103;47.952;-1.502;2022-10-31T01:19:38;435.48;;;401.40;;
49252;SDS011;35103;47.952;-1.502;2022-10-31T01:22:04;546.88;;;505.85;;
49252;SDS011;35103;47.952;-1.502;2022-10-31T01:24:29;637.88;;;582.05;;
49252;SDS011;35103;47.952;-1.502;2022-10-31T01:26:55;489.30;;;453.42;;
49252;SDS011;35103;47.952;-1.502;2022-10-31T01:29:20;475.88;;;442.17;;
49252;SDS011;35103;47.952;-1.502;2022-10-31T01:31:46;462.90;;;430.30;;
49252;SDS011;35103;47.952;-1.502;2022-10-31T01:34:12;525.15;;;484.95;;
49252;SDS011;35103;47.952;-1.502;2022-10-31T01:36:39;643.65;;;594.47;;
49252;SDS011;35103;47.952;-1.502;2022-10-31T01:39:07;561.47;;;518.25;;
49252;SDS011;35103;47.952;-1.502;2022-10-31T01:41:36;587.63;;;540.63;;
49252;SDS011;35103;47.952;-1.502;2022-10-31T01:49:48;540.42;;;500.42;;
49252;SDS011;35103;47.952;-1.502;2022-10-31T01:52:29;537.80;;;500.05;;
49252;SDS011;35103;47.952;-1.502;2022-10-31T01:55:01;548.28;;;508.55;;
49252;SDS011;35103;47.952;-1.502;2022-10-31T01:57:30;581.35;;;537.45;;
49252;SDS011;35103;47.952;-1.502;2022-10-31T01:59:59;526.65;;;488.15;;
49252;SDS011;35103;47.952;-1.502;2022-10-31T02:02:31;508.38;;;471.10;;
49252;SDS011;35103;47.952;-1.502;2022-10-31T02:04:57;575.25;;;531.65;;
49252;SDS011;35103;47.952;-1.502;2022-10-31T02:07:43;531.75;;;489.67;;
49252;SDS011;35103;47.952;-1.502;2022-10-31T02:10:16;564.55;;;523.35;;
49252;SDS011;35103;47.952;-1.502;2022-10-31T02:12:43;544.38;;;503.85;;
49252;SDS011;35103;47.952;-1.502;2022-10-31T02:15:10;546.15;;;504.92;;
49252;SDS011;35103;47.952;-1.502;2022-10-31T02:17:36;635.13;;;583.33;;
49252;SDS011;35103;47.952;-1.502;2022-10-31T02:20:13;514.13;;;475.13;;
49252;SDS011;35103;47.952;-1.502;2022-10-31T02:25:41;496.00;;;461.27;;
49252;SDS011;35103;47.952;-1.502;2022-10-31T02:28:34;505.90;;;469.48;;
49252;SDS011;35103;47.952;-1.502;2022-10-31T02:31:36;655.47;;;603.45;;
49252;SDS011;35103;47.952;-1.502;2022-10-31T02:45:06;582.50;;;538.47;;
49252;SDS011;35103;47.952;-1.502;2022-10-31T02:47:49;430.02;;;398.70;;
49252;SDS011;35103;47.952;-1.502;2022-10-31T02:50:25;439.67;;;410.13;;
49252;SDS011;35103;47.952;-1.502;2022-10-31T02:52:55;537.95;;;496.52;;
49252;SDS011;35103;47.952;-1.502;2022-10-31T02:57:50;421.83;;;391.48;;
49252;SDS011;35103;47.952;-1.502;2022-10-31T03:00:37;565.17;;;521.22;;
49252;SDS011;35103;47.952;-1.502;2022-10-31T03:03:10;591.08;;;543.88;;
49252;SDS011;35103;47.952;-1.502;2022-10-31T03:08:52;383.33;;;358.20;;
49252;SDS011;35103;47.952;-1.502;2022-10-31T03:17:37;609.30;;;559.77;;
49252;SDS011;35103;47.952;-1.502;2022-10-31T03:20:10;583.08;;;534.78;;
49252;SDS011;35103;47.952;-1.502;2022-10-31T03:22:35;548.28;;;505.23;;
49252;SDS011;35103;47.952;-1.502;2022-10-31T03:25:05;670.33;;;615.45;;
49252;SDS011;35103;47.952;-1.502;2022-10-31T03:27:33;469.58;;;434.38;;
49252;SDS011;35103;47.952;-1.502;2022-10-31T03:30:01;551.53;;;509.92;;
49252;SDS011;35103;47.952;-1.502;2022-10-31T03:32:40;549.60;;;508.10;;
49252;SDS011;35103;47.952;-1.502;2022-10-31T03:35:09;450.58;;;419.95;;
49252;SDS011;35103;47.952;-1.502;2022-10-31T03:37:36;473.52;;;439.75;;
49252;SDS011;35103;47.952;-1.502;2022-10-31T03:40:04;640.05;;;586.65;;
49252;SDS011;35103;47.952;-1.502;2022-10-31T03:42:33;651.25;;;596.63;;
49252;SDS011;35103;47.952;-1.502;2022-10-31T03:45:04;452.90;;;421.45;;
49252;SDS011;35103;47.952;-1.502;2022-10-31T03:47:40;648.90;;;598.38;;
49252;SDS011;35103;47.952;-1.502;2022-10-31T03:50:08;546.30;;;506.67;;
49252;SDS011;35103;47.952;-1.502;2022-10-31T03:52:37;607.28;;;558.30;;
49252;SDS011;35103;47.952;-1.502;2022-10-31T03:55:07;755.50;;;692.17;;
49252;SDS011;35103;47.952;-1.502;2022-10-31T03:57:39;644.67;;;590.65;;
49252;SDS011;35103;47.952;-1.502;2022-10-31T04:00:12;610.53;;;560.97;;
49252;SDS011;35103;47.952;-1.502;2022-10-31T04:02:40;531.97;;;493.88;;
49252;SDS011;35103;47.952;-1.502;2022-10-31T04:05:09;544.65;;;502.65;;
49252;SDS011;35103;47.952;-1.502;2022-10-31T04:07:39;567.03;;;522.10;;
49252;SDS011;35103;47.952;-1.502;2022-10-31T04:10:09;553.55;;;511.05;;
49252;SDS011;35103;47.952;-1.502;2022-10-31T04:12:38;581.03;;;531.90;;
49252;SDS011;35103;47.952;-1.502;2022-10-31T04:15:04;522.03;;;482.30;;
49252;SDS011;35103;47.952;-1.502;2022-10-31T04:17:33;493.58;;;456.60;;
49252;SDS011;35103;47.952;-1.502;2022-10-31T04:20:02;661.63;;;605.85;;
49252;SDS011;35103;47.952;-1.502;2022-10-31T04:22:28;567.50;;;525.50;;
49252;SDS011;35103;47.952;-1.502;2022-10-31T04:24:54;519.60;;;481.38;;
49252;SDS011;35103;47.952;-1.502;2022-10-31T04:27:19;486.45;;;450.08;;
49252;SDS011;35103;47.952;-1.502;2022-10-31T04:29:45;591.88;;;545.55;;
49252;SDS011;35103;47.952;-1.502;2022-10-31T04:32:10;677.20;;;622.10;;
49252;SDS011;35103;47.952;-1.502;2022-10-31T04:34:36;556.15;;;513.25;;
49252;SDS011;35103;47.952;-1.502;2022-10-31T04:37:01;549.88;;;507.58;;
49252;SDS011;35103;47.952;-1.502;2022-10-31T04:39:27;525.00;;;485.38;;
49252;SDS011;35103;47.952;-1.502;2022-10-31T04:41:52;744.03;;;679.60;;
49252;SDS011;35103;47.952;-1.502;2022-10-31T04:44:18;589.75;;;542.15;;
49252;SDS011;35103;47.952;-1.502;2022-10-31T04:46:43;678.88;;;624.53;;
49252;SDS011;35103;47.952;-1.502;2022-10-31T04:49:09;600.95;;;555.53;;
49252;SDS011;35103;47.952;-1.502;2022-10-31T04:51:35;646.42;;;595.35;;
49252;SDS011;35103;47.952;-1.502;2022-10-31T04:54:00;595.53;;;550.17;;
49252;SDS011;35103;47.952;-1.502;2022-10-31T04:56:26;557.17;;;516.10;;
49252;SDS011;35103;47.952;-1.502;2022-10-31T04:58:51;540.92;;;501.70;;
49252;SDS011;35103;47.952;-1.502;2022-10-31T05:01:17;625.08;;;574.35;;
49252;SDS011;35103;47.952;-1.502;2022-10-31T05:03:43;607.88;;;559.47;;
49252;SDS011;35103;47.952;-1.502;2022-10-31T05:06:08;688.25;;;633.75;;
49252;SDS011;35103;47.952;-1.502;2022-10-31T05:08:34;581.70;;;537.35;;
49252;SDS011;35103;47.952;-1.502;2022-10-31T05:11:00;659.55;;;604.28;;
49252;SDS011;35103;47.952;-1.502;2022-10-31T05:13:26;617.13;;;568.50;;
49252;SDS011;35103;47.952;-1.502;2022-10-31T05:15:51;658.03;;;603.33;;
49252;SDS011;35103;47.952;-1.502;2022-10-31T05:18:17;647.97;;;594.75;;
49252;SDS011;35103;47.952;-1.502;2022-10-31T05:20:42;511.35;;;475.90;;
49252;SDS011;35103;47.952;-1.502;2022-10-31T05:23:08;716.47;;;657.20;;
49252;SDS011;35103;47.952;-1.502;2022-10-31T05:25:33;545.83;;;504.48;;
49252;SDS011;35103;47.952;-1.502;2022-10-31T05:27:59;701.35;;;645.30;;
49252;SDS011;35103;47.952;-1.502;2022-10-31T05:30:26;620.22;;;570.92;;
49252;SDS011;35103;47.952;-1.502;2022-10-31T05:32:53;602.67;;;555.03;;
49252;SDS011;35103;47.952;-1.502;2022-10-31T05:35:22;599.30;;;551.67;;
49252;SDS011;35103;47.952;-1.502;2022-10-31T05:37:51;583.28;;;538.95;;
49252;SDS011;35103;47.952;-1.502;2022-10-31T05:40:18;592.78;;;546.80;;
49252;SDS011;35103;47.952;-1.502;2022-10-31T05:42:44;555.13;;;513.90;;
49252;SDS011;35103;47.952;-1.502;2022-10-31T05:45:11;657.65;;;606.45;;
49252;SDS011;35103;47.952;-1.502;2022-10-31T05:47:41;662.15;;;610.75;;
49252;SDS011;35103;47.952;-1.502;2022-10-31T05:50:07;718.00;;;656.42;;
49252;SDS011;35103;47.952;-1.502;2022-10-31T05:52:33;626.55;;;576.53;;
49252;SDS011;35103;47.952;-1.502;2022-10-31T05:54:59;566.47;;;523.83;;
49252;SDS011;35103;47.952;-1.502;2022-10-31T05:57:25;714.47;;;653.80;;
49252;SDS011;35103;47.952;-1.502;2022-10-31T05:59:50;625.80;;;579.33;;
49252;SDS011;35103;47.952;-1.502;2022-10-31T06:02:16;656.67;;;605.78;;
49252;SDS011;35103;47.952;-1.502;2022-10-31T06:04:41;616.35;;;568.95;;
49252;SDS011;35103;47.952;-1.502;2022-10-31T06:07:07;576.65;;;535.20;;
49252;SDS011;35103;47.952;-1.502;2022-10-31T06:09:32;675.50;;;619.88;;
49252;SDS011;35103;47.952;-1.502;2022-10-31T06:11:58;575.17;;;531.53;;
49252;SDS011;35103;47.952;-1.502;2022-10-31T06:14:23;650.80;;;599.03;;
49252;SDS011;35103;47.952;-1.502;2022-10-31T06:16:49;675.97;;;621.33;;
49252;SDS011;35103;47.952;-1.502;2022-10-31T06:19:14;765.95;;;705.97;;
49252;SDS011;35103;47.952;-1.502;2022-10-31T06:21:40;708.72;;;651.20;;
49252;SDS011;35103;47.952;-1.502;2022-10-31T06:24:05;641.83;;;591.17;;
49252;SDS011;35103;47.952;-1.502;2022-10-31T06:26:31;616.10;;;570.08;;
49252;SDS011;35103;47.952;-1.502;2022-10-31T06:28:57;637.78;;;592.22;;
49252;SDS011;35103;47.952;-1.502;2022-10-31T06:31:22;677.03;;;624.08;;
49252;SDS011;35103;47.952;-1.502;2022-10-31T06:33:48;741.13;;;681.08;;
49252;SDS011;35103;47.952;-1.502;2022-10-31T06:36:13;794.45;;;726.05;;
49252;SDS011;35103;47.952;-1.502;2022-10-31T06:38:39;804.40;;;732.03;;
49252;SDS011;35103;47.952;-1.502;2022-10-31T06:41:05;633.10;;;586.28;;
49252;SDS011;35103;47.952;-1.502;2022-10-31T06:43:31;705.58;;;651.50;;
49252;SDS011;35103;47.952;-1.502;2022-10-31T06:45:57;738.13;;;678.60;;
49252;SDS011;35103;47.952;-1.502;2022-10-31T06:48:23;638.90;;;591.30;;
49252;SDS011;35103;47.952;-1.502;2022-10-31T06:50:48;597.70;;;553.40;;
49252;SDS011;35103;47.952;-1.502;2022-10-31T06:53:14;626.08;;;577.13;;
49252;SDS011;35103;47.952;-1.502;2022-10-31T06:55:40;636.42;;;587.30;;
49252;SDS011;35103;47.952;-1.502;2022-10-31T06:58:06;609.33;;;564.15;;
49252;SDS011;35103;47.952;-1.502;2022-10-31T07:00:34;677.42;;;621.47;;
49252;SDS011;35103;47.952;-1.502;2022-10-31T07:03:03;683.92;;;631.67;;
49252;SDS011;35103;47.952;-1.502;2022-10-31T07:05:31;733.15;;;675.15;;
49252;SDS011;35103;47.952;-1.502;2022-10-31T07:08:00;649.97;;;597.53;;
49252;SDS011;35103;47.952;-1.502;2022-10-31T07:10:29;606.95;;;560.95;;
49252;SDS011;35103;47.952;-1.502;2022-10-31T07:12:57;604.40;;;557.80;;
49252;SDS011;35103;47.952;-1.502;2022-10-31T07:15:24;669.53;;;616.28;;
49252;SDS011;35103;47.952;-1.502;2022-10-31T07:17:50;695.80;;;642.42;;
49252;SDS011;35103;47.952;-1.502;2022-10-31T07:20:17;659.00;;;606.67;;
49252;SDS011;35103;47.952;-1.502;2022-10-31T07:22:42;645.70;;;595.88;;
49252;SDS011;35103;47.952;-1.502;2022-10-31T07:25:08;729.55;;;668.45;;
49252;SDS011;35103;47.952;-1.502;2022-10-31T07:27:36;697.13;;;641.42;;
49252;SDS011;35103;47.952;-1.502;2022-10-31T07:30:05;703.53;;;644.15;;
49252;SDS011;35103;47.952;-1.502;2022-10-31T07:32:38;601.10;;;557.33;;
49252;SDS011;35103;47.952;-1.502;2022-10-31T07:35:12;709.22;;;650.20;;
49252;SDS011;35103;47.952;-1.502;2022-10-31T07:37:39;758.92;;;696.53;;
49252;SDS011;35103;47.952;-1.502;2022-10-31T07:40:06;724.17;;;664.42;;
49252;SDS011;35103;47.952;-1.502;2022-10-31T07:42:39;748.60;;;684.33;;
49252;SDS011;35103;47.952;-1.502;2022-10-31T07:45:08;773.23;;;710.30;;
49252;SDS011;35103;47.952;-1.502;2022-10-31T07:47:38;663.10;;;609.88;;
49252;SDS011;35103;47.952;-1.502;2022-10-31T07:50:04;702.15;;;643.90;;
49252;SDS011;35103;47.952;-1.502;2022-10-31T07:52:30;618.63;;;572.78;;
49252;SDS011;35103;47.952;-1.502;2022-10-31T07:54:56;618.30;;;570.22;;
49252;SDS011;35103;47.952;-1.502;2022-10-31T07:57:22;644.38;;;595.22;;
49252;SDS011;35103;47.952;-1.502;2022-10-31T07:59:47;586.53;;;542.45;;
49252;SDS011;35103;47.952;-1.502;2022-10-31T08:02:13;649.83;;;597.90;;
49252;SDS011;35103;47.952;-1.502;2022-10-31T08:04:38;641.45;;;590.35;;
49252;SDS011;35103;47.952;-1.502;2022-10-31T08:07:04;737.53;;;677.72;;
49252;SDS011;35103;47.952;-1.502;2022-10-31T08:09:29;699.55;;;641.33;;
49252;SDS011;35103;47.952;-1.502;2022-10-31T08:11:55;684.88;;;628.50;;
49252;SDS011;35103;47.952;-1.502;2022-10-31T08:14:21;650.25;;;600.58;;
49252;SDS011;35103;47.952;-1.502;2022-10-31T08:16:46;653.25;;;601.40;;
49252;SDS011;35103;47.952;-1.502;2022-10-31T08:19:12;663.53;;;612.40;;
49252;SDS011;35103;47.952;-1.502;2022-10-31T08:21:37;671.47;;;616.42;;
49252;SDS011;35103;47.952;-1.502;2022-10-31T08:24:03;768.45;;;702.25;;
49252;SDS011;35103;47.952;-1.502;2022-10-31T08:26:29;617.05;;;569.40;;
49252;SDS011;35103;47.952;-1.502;2022-10-31T08:28:54;737.55;;;673.17;;
49252;SDS011;35103;47.952;-1.502;2022-10-31T08:31:20;709.65;;;647.80;;
49252;SDS011;35103;47.952;-1.502;2022-10-31T08:33:46;689.90;;;631.80;;
49252;SDS011;35103;47.952;-1.502;2022-10-31T08:36:11;607.38;;;561.42;;
49252;SDS011;35103;47.952;-1.502;2022-10-31T08:38:37;637.55;;;584.70;;
49252;SDS011;35103;47.952;-1.502;2022-10-31T08:41:03;616.95;;;569.33;;
49252;SDS011;35103;47.952;-1.502;2022-10-31T08:43:28;621.42;;;572.10;;
49252;SDS011;35103;47.952;-1.502;2022-10-31T08:45:54;663.58;;;610.22;;
49252;SDS011;35103;47.952;-1.502;2022-10-31T08:48:20;614.55;;;566.47;;
49252;SDS011;35103;47.952;-1.502;2022-10-31T08:50:46;700.05;;;643.10;;
49252;SDS011;35103;47.952;-1.502;2022-10-31T08:53:13;723.58;;;662.67;;
49252;SDS011;35103;47.952;-1.502;2022-10-31T08:55:41;696.28;;;637.22;;
49252;SDS011;35103;47.952;-1.502;2022-10-31T08:58:09;730.75;;;667.83;;
49252;SDS011;35103;47.952;-1.502;2022-10-31T09:00:36;693.55;;;634.65;;
49252;SDS011;35103;47.952;-1.502;2022-10-31T09:03:06;668.05;;;615.88;;
49252;SDS011;35103;47.952;-1.502;2022-10-31T09:05:35;683.28;;;627.55;;
49252;SDS011;35103;47.952;-1.502;2022-10-31T09:08:01;728.42;;;665.08;;
49252;SDS011;35103;47.952;-1.502;2022-10-31T09:10:28;679.60;;;624.33;;
49252;SDS011;35103;47.952;-1.502;2022-10-31T09:13:07;706.55;;;645.67;;
49252;SDS011;35103;47.952;-1.502;2022-10-31T09:15:36;788.80;;;718.05;;
49252;SDS011;35103;47.952;-1.502;2022-10-31T09:18:03;672.33;;;620.22;;
49252;SDS011;35103;47.952;-1.502;2022-10-31T09:20:30;677.17;;;621.72;;
49252;SDS011;35103;47.952;-1.502;2022-10-31T09:22:58;787.60;;;712.55;;
49252;SDS011;35103;47.952;-1.502;2022-10-31T09:25:25;745.80;;;680.90;;
49252;SDS011;35103;47.952;-1.502;2022-10-31T09:27:51;605.17;;;559.08;;
49252;SDS011;35103;47.952;-1.502;2022-10-31T09:30:24;643.08;;;592.20;;
49252;SDS011;35103;47.952;-1.502;2022-10-31T09:32:57;619.65;;;571.05;;
49252;SDS011;35103;47.952;-1.502;2022-10-31T09:35:24;643.92;;;592.15;;
49252;SDS011;35103;47.952;-1.502;2022-10-31T09:37:56;685.17;;;630.20;;
49252;SDS011;35103;47.952;-1.502;2022-10-31T09:40:36;673.05;;;618.70;;
49252;SDS011;35103;47.952;-1.502;2022-10-31T09:48:17;756.63;;;691.03;;
49252;SDS011;35103;47.952;-1.502;2022-10-31T09:51:04;609.63;;;561.80;;
49252;SDS011;35103;47.952;-1.502;2022-10-31T09:53:43;726.35;;;666.58;;
49252;SDS011;35103;47.952;-1.502;2022-10-31T09:56:39;699.20;;;641.60;;
49252;SDS011;35103;47.952;-1.502;2022-10-31T09:59:05;666.80;;;613.25;;
49252;SDS011;35103;47.952;-1.502;2022-10-31T10:01:55;665.65;;;612.83;;
49252;SDS011;35103;47.952;-1.502;2022-10-31T10:04:30;680.20;;;626.33;;
49252;SDS011;35103;47.952;-1.502;2022-10-31T10:07:00;724.38;;;664.92;;
49252;SDS011;35103;47.952;-1.502;2022-10-31T10:09:31;747.67;;;682.45;;
49252;SDS011;35103;47.952;-1.502;2022-10-31T10:25:28;819.10;;;744.58;;
49252;SDS011;35103;47.952;-1.502;2022-10-31T10:28:03;767.42;;;699.60;;
49252;SDS011;35103;47.952;-1.502;2022-10-31T10:30:49;753.25;;;692.10;;
49252;SDS011;35103;47.952;-1.502;2022-10-31T10:33:28;682.53;;;627.50;;
49252;SDS011;35103;47.952;-1.502;2022-10-31T10:36:05;778.60;;;711.97;;
49252;SDS011;35103;47.952;-1.502;2022-10-31T10:38:38;787.08;;;712.30;;
49252;SDS011;35103;47.952;-1.502;2022-10-31T10:41:12;743.38;;;679.03;;
49252;SDS011;35103;47.952;-1.502;2022-10-31T10:43:41;721.30;;;661.30;;
49252;SDS011;35103;47.952;-1.502;2022-10-31T10:51:22;738.78;;;672.13;;
49252;SDS011;35103;47.952;-1.502;2022-10-31T10:58:54;720.53;;;659.50;;
49252;SDS011;35103;47.952;-1.502;2022-10-31T11:01:22;731.63;;;670.97;;
49252;SDS011;35103;47.952;-1.502;2022-10-31T11:03:48;770.80;;;699.17;;
49252;SDS011;35103;47.952;-1.502;2022-10-31T11:06:17;714.92;;;655.03;;
49252;SDS011;35103;47.952;-1.502;2022-10-31T11:08:44;719.88;;;659.03;;
49252;SDS011;35103;47.952;-1.502;2022-10-31T11:11:31;728.42;;;667.53;;
49252;SDS011;35103;47.952;-1.502;2022-10-31T11:14:11;691.00;;;635.30;;
49252;SDS011;35103;47.952;-1.502;2022-10-31T11:16:40;688.83;;;632.05;;
49252;SDS011;35103;47.952;-1.502;2022-10-31T11:21:46;730.35;;;667.25;;
49252;SDS011;35103;47.952;-1.502;2022-10-31T11:24:16;737.92;;;671.70;;
49252;SDS011;35103;47.952;-1.502;2022-10-31T11:26:47;649.67;;;593.35;;
49252;SDS011;35103;47.952;-1.502;2022-10-31T11:29:15;882.55;;;782.13;;
49252;SDS011;35103;47.952;-1.502;2022-10-31T11:31:41;727.83;;;666.47;;
49252;SDS011;35103;47.952;-1.502;2022-10-31T11:34:16;727.08;;;664.20;;
49252;SDS011;35103;47.952;-1.502;2022-10-31T11:36:49;779.95;;;710.60;;
49252;SDS011;35103;47.952;-1.502;2022-10-31T11:39:22;749.42;;;684.50;;
49252;SDS011;35103;47.952;-1.502;2022-10-31T11:41:49;717.92;;;657.72;;
49252;SDS011;35103;47.952;-1.502;2022-10-31T11:46:52;694.58;;;635.47;;
49252;SDS011;35103;47.952;-1.502;2022-10-31T11:49:37;733.28;;;672.10;;
49252;SDS011;35103;47.952;-1.502;2022-10-31T11:52:46;750.92;;;684.03;;
49252;SDS011;35103;47.952;-1.502;2022-10-31T11:54:59;843.33;;;764.13;;
49252;SDS011;35103;47.952;-1.502;2022-10-31T11:57:50;698.05;;;639.40;;
49252;SDS011;35103;47.952;-1.502;2022-10-31T12:00:22;729.13;;;666.65;;
49252;SDS011;35103;47.952;-1.502;2022-10-31T12:02:48;738.33;;;671.15;;
49252;SDS011;35103;47.952;-1.502;2022-10-31T12:05:18;716.15;;;657.15;;
49252;SDS011;35103;47.952;-1.502;2022-10-31T12:07:48;773.67;;;702.50;;
49252;SDS011;35103;47.952;-1.502;2022-10-31T12:10:14;779.30;;;708.70;;
49252;SDS011;35103;47.952;-1.502;2022-10-31T12:18:14;779.13;;;708.65;;
49252;SDS011;35103;47.952;-1.502;2022-10-31T12:20:54;738.20;;;672.28;;
49252;SDS011;35103;47.952;-1.502;2022-10-31T12:23:42;646.72;;;592.78;;
49252;SDS011;35103;47.952;-1.502;2022-10-31T12:29:03;774.33;;;703.25;;
49252;SDS011;35103;47.952;-1.502;2022-10-31T12:58:46;756.83;;;689.35;;
49252;SDS011;35103;47.952;-1.502;2022-10-31T13:01:27;870.25;;;781.72;;
49252;SDS011;35103;47.952;-1.502;2022-10-31T13:06:49;692.67;;;636.55;;
49252;SDS011;35103;47.952;-1.502;2022-10-31T13:09:22;791.83;;;721.15;;
49252;SDS011;35103;47.952;-1.502;2022-10-31T13:11:58;800.58;;;724.60;;
49252;SDS011;35103;47.952;-1.502;2022-10-31T13:17:06;766.17;;;700.13;;
49252;SDS011;35103;47.952;-1.502;2022-10-31T13:19:48;831.13;;;749.17;;
49252;SDS011;35103;47.952;-1.502;2022-10-31T13:22:18;750.53;;;685.47;;
49252;SDS011;35103;47.952;-1.502;2022-10-31T13:27:28;759.80;;;691.47;;
49252;SDS011;35103;47.952;-1.502;2022-10-31T13:32:39;844.35;;;761.85;;
49252;SDS011;35103;47.952;-1.502;2022-10-31T13:35:21;805.67;;;733.75;;
49252;SDS011;35103;47.952;-1.502;2022-10-31T13:38:00;801.33;;;729.75;;
49252;SDS011;35103;47.952;-1.502;2022-10-31T13:40:42;762.90;;;696.30;;
49252;SDS011;35103;47.952;-1.502;2022-10-31T13:43:33;896.70;;;806.75;;
49252;SDS011;35103;47.952;-1.502;2022-10-31T13:46:21;783.05;;;712.38;;
49252;SDS011;35103;47.952;-1.502;2022-10-31T13:48:48;823.65;;;747.97;;
49252;SDS011;35103;47.952;-1.502;2022-10-31T13:51:13;789.70;;;716.58;;
49252;SDS011;35103;47.952;-1.502;2022-10-31T13:56:26;817.60;;;745.72;;
49252;SDS011;35103;47.952;-1.502;2022-10-31T14:01:34;774.25;;;707.05;;
49252;SDS011;35103;47.952;-1.502;2022-10-31T14:04:14;819.00;;;744.38;;
49252;SDS011;35103;47.952;-1.502;2022-10-31T14:09:24;785.33;;;717.17;;
49252;SDS011;35103;47.952;-1.502;2022-10-31T14:11:51;802.88;;;732.17;;
49252;SDS011;35103;47.952;-1.502;2022-10-31T14:14:18;798.22;;;726.38;;
49252;SDS011;35103;47.952;-1.502;2022-10-31T14:16:45;805.42;;;734.85;;
49252;SDS011;35103;47.952;-1.502;2022-10-31T14:19:18;813.97;;;742.30;;
49252;SDS011;35103;47.952;-1.502;2022-10-31T14:21:46;807.47;;;736.17;;
49252;SDS011;35103;47.952;-1.502;2022-10-31T14:27:34;799.15;;;730.78;;
49252;SDS011;35103;47.952;-1.502;2022-10-31T14:29:45;802.17;;;730.47;;
49252;SDS011;35103;47.952;-1.502;2022-10-31T14:34:37;834.20;;;756.88;;
49252;SDS011;35103;47.952;-1.502;2022-10-31T14:48:23;865.88;;;778.65;;
49252;SDS011;35103;47.952;-1.502;2022-10-31T14:51:10;804.88;;;732.58;;
49252;SDS011;35103;47.952;-1.502;2022-10-31T14:56:23;761.78;;;698.45;;
49252;SDS011;35103;47.952;-1.502;2022-10-31T14:58:57;833.13;;;752.83;;
49252;SDS011;35103;47.952;-1.502;2022-10-31T15:01:31;838.42;;;761.03;;
49252;SDS011;35103;47.952;-1.502;2022-10-31T15:06:49;765.70;;;699.08;;
49252;SDS011;35103;47.952;-1.502;2022-10-31T15:09:21;861.03;;;779.15;;
49252;SDS011;35103;47.952;-1.502;2022-10-31T15:11:47;807.65;;;734.92;;
49252;SDS011;35103;47.952;-1.502;2022-10-31T15:14:22;808.78;;;739.40;;
49252;SDS011;35103;47.952;-1.502;2022-10-31T15:16:50;796.78;;;725.22;;
49252;SDS011;35103;47.952;-1.502;2022-10-31T15:19:19;754.35;;;689.53;;
49252;SDS011;35103;47.952;-1.502;2022-10-31T15:21:47;804.20;;;730.88;;
49252;SDS011;35103;47.952;-1.502;2022-10-31T15:24:16;886.92;;;801.42;;
49252;SDS011;35103;47.952;-1.502;2022-10-31T15:26:44;794.58;;;721.13;;
49252;SDS011;35103;47.952;-1.502;2022-10-31T15:29:12;722.20;;;658.30;;
49252;SDS011;35103;47.952;-1.502;2022-10-31T15:31:53;691.30;;;632.05;;
49252;SDS011;35103;47.952;-1.502;2022-10-31T15:34:38;819.25;;;743.55;;
49252;SDS011;35103;47.952;-1.502;2022-10-31T15:37:05;778.53;;;706.55;;
49252;SDS011;35103;47.952;-1.502;2022-10-31T15:39:39;899.55;;;803.70;;
49252;SDS011;35103;47.952;-1.502;2022-10-31T15:42:05;856.58;;;771.33;;
49252;SDS011;35103;47.952;-1.502;2022-10-31T15:44:43;1256.38;;;891.58;;
49252;SDS011;35103;47.952;-1.502;2022-10-31T15:47:15;909.28;;;805.33;;
49252;SDS011;35103;47.952;-1.502;2022-10-31T15:49:53;1997.97;;;997.83;;
49252;SDS011;35103;47.952;-1.502;2022-10-31T15:54:59;1130.85;;;822.42;;
49252;SDS011;35103;47.952;-1.502;2022-10-31T15:57:27;781.90;;;714.97;;
49252;SDS011;35103;47.952;-1.502;2022-10-31T15:59:53;802.63;;;732.75;;
49252;SDS011;35103;47.952;-1.502;2022-10-31T16:02:22;780.03;;;707.53;;
49252;SDS011;35103;47.952;-1.502;2022-10-31T16:04:50;813.30;;;733.92;;
49252;SDS011;35103;47.952;-1.502;2022-10-31T16:07:26;805.65;;;732.47;;
49252;SDS011;35103;47.952;-1.502;2022-10-31T16:10:00;816.67;;;745.80;;
49252;SDS011;35103;47.952;-1.502;2022-10-31T16:12:33;771.88;;;704.70;;
49252;SDS011;35103;47.952;-1.502;2022-10-31T16:15:01;833.25;;;757.65;;
49252;SDS011;35103;47.952;-1.502;2022-10-31T16:17:28;745.78;;;682.28;;
49252;SDS011;35103;47.952;-1.502;2022-10-31T16:19:59;762.28;;;696.38;;
49252;SDS011;35103;47.952;-1.502;2022-10-31T16:24:55;745.53;;;683.17;;